Main page
METAR-TAF:

METAR-TAF

Airports :

Amsterdam, Netherlands

Amsterdam Airport Schiphol

latitude: 52-18N, longitude: 004-46E, elevation: -4 m

Current weather observation

The report was made 30 minutes ago, at 11:25 UTC
Wind 5 kt from the West, varying between South and Northwest
Temperature 19°C
Humidity 73%
Pressure 1023 hPa
Visibility 10 km or more
Few clouds at a height of 2500 ft, Towering cumulus.

METAR: EHAM 211125Z 26005KT 180V320 9999 FEW025TCU 19/14 Q1023 NOSIG

Time: 13:55 (11:55 UTC)

Forecast

The report was made 53 minutes ago, at 11:02 UTC
Forecast valid from 21 at 12 UTC to 22 at 18 UTC
Wind 5 kt from the West/Southwest
Visibility 10 km or more
Scattered clouds at a height of 2000 ft
Probability 30% :
Temporary
from 22 at 02 UTC to 22 at 06 UTC
Visibility: 4000 m
Shallow fog, mist

TAF: EHAM 211102Z 2112/2218 25005KT 9999 SCT020 PROB30 TEMPO 2202/2206 4000 MIFG BR

Weather observations and forecasts of more than 4000 airports (METAR and TAF reports).

The available stations are represented by yellow and red dots on the map.

Hover mouse over dot to see the name of the station.

Then click to see weather observations and forecasts.

To change the map : click on the green buttons with a black cross to zoom in, on the green button with a dash to zoom out, or on the green arrows for adjacent maps.


METAR-TAF: